createdAt,value
2018-08-17T00:00:52.331Z,54.81
2018-08-17T00:03:21.510Z,54.30
2018-08-17T00:05:50.656Z,56.46
2018-08-17T00:08:19.835Z,56.05
2018-08-17T00:10:49.021Z,55.66
2018-08-17T00:13:18.202Z,55.91
2018-08-17T00:15:47.348Z,55.90
2018-08-17T00:18:16.496Z,55.61
2018-08-17T00:20:45.690Z,56.06
2018-08-17T00:23:14.810Z,55.85
2018-08-17T00:25:43.986Z,56.10
2018-08-17T00:28:13.121Z,56.06
2018-08-17T00:30:42.285Z,55.76
2018-08-17T00:33:11.575Z,55.68
2018-08-17T00:35:40.786Z,55.57
2018-08-17T00:38:09.911Z,55.78
2018-08-17T00:40:39.061Z,55.81
2018-08-17T00:43:08.210Z,56.12
2018-08-17T00:45:37.360Z,56.43
2018-08-17T00:48:07.073Z,56.78
2018-08-17T00:50:36.224Z,56.98
2018-08-17T00:53:05.359Z,56.97
2018-08-17T00:55:34.549Z,56.73
2018-08-17T00:58:03.762Z,56.50
2018-08-17T01:00:32.926Z,56.45
2018-08-17T01:03:02.090Z,56.75
2018-08-17T01:05:31.269Z,57.05
2018-08-17T01:08:00.432Z,57.05
2018-08-17T01:10:29.562Z,56.82
2018-08-17T01:12:58.743Z,56.97
2018-08-17T01:15:27.914Z,56.89
2018-08-17T01:17:57.081Z,57.33
2018-08-17T01:20:26.239Z,57.18
2018-08-17T01:22:55.367Z,57.50
2018-08-17T01:25:24.502Z,57.56
2018-08-17T01:27:53.644Z,57.92
2018-08-17T01:30:22.763Z,58.13
2018-08-17T01:32:51.923Z,58.00
2018-08-17T01:35:21.066Z,57.92
2018-08-17T01:37:50.236Z,58.12
2018-08-17T01:40:19.420Z,57.90
2018-08-17T01:42:48.583Z,57.91
2018-08-17T01:45:17.746Z,58.81
2018-08-17T01:47:46.906Z,59.33
2018-08-17T01:50:16.015Z,59.63
2018-08-17T01:52:45.224Z,59.32
2018-08-17T01:55:14.390Z,58.51
2018-08-17T01:57:43.590Z,58.30
2018-08-17T02:00:12.858Z,57.95
2018-08-17T02:02:42.851Z,57.59
2018-08-17T02:05:12.233Z,57.55
2018-08-17T02:07:41.348Z,57.69
2018-08-17T02:10:11.597Z,57.72
2018-08-17T02:12:41.078Z,57.67
2018-08-17T02:15:10.227Z,57.78
2018-08-17T02:17:39.376Z,57.72
2018-08-17T02:20:08.552Z,57.52
2018-08-17T02:22:37.631Z,57.63
2018-08-17T02:25:06.786Z,57.53
2018-08-17T02:27:35.966Z,57.63
2018-08-17T02:30:05.910Z,57.81
2018-08-17T02:32:35.097Z,57.71
2018-08-17T02:35:04.357Z,58.02
2018-08-17T02:37:33.522Z,57.75
2018-08-17T02:40:02.774Z,57.61
2018-08-17T02:42:31.944Z,57.63
2018-08-17T02:45:01.107Z,57.18
2018-08-17T02:47:30.253Z,57.35
2018-08-17T02:49:59.377Z,57.79
2018-08-17T02:52:28.525Z,58.00
2018-08-17T02:54:57.704Z,57.57
2018-08-17T02:57:26.867Z,57.78
2018-08-17T02:59:55.985Z,57.80
2018-08-17T03:02:25.163Z,58.37
2018-08-17T03:04:54.318Z,58.04
2018-08-17T03:07:23.448Z,58.21
2018-08-17T03:09:52.624Z,59.02
2018-08-17T03:12:21.804Z,59.33
2018-08-17T03:14:51.026Z,58.78
2018-08-17T03:17:20.166Z,58.72
2018-08-17T03:19:49.307Z,58.68
2018-08-17T03:22:18.491Z,58.77
2018-08-17T03:24:47.625Z,58.55
2018-08-17T03:27:16.825Z,59.02
2018-08-17T03:29:46.032Z,58.68
2018-08-17T03:32:15.243Z,58.81
2018-08-17T03:34:44.363Z,59.02
2018-08-17T03:37:13.525Z,58.76
2018-08-17T03:39:42.696Z,59.27
2018-08-17T03:42:11.952Z,59.20
2018-08-17T03:44:41.083Z,58.85
2018-08-17T03:47:10.346Z,59.04
2018-08-17T03:49:39.515Z,59.15
2018-08-17T03:52:08.650Z,58.98
2018-08-17T03:54:37.800Z,59.55
2018-08-17T03:57:07.027Z,59.30
2018-08-17T03:59:36.213Z,59.71
2018-08-17T04:02:05.352Z,59.63
2018-08-17T04:04:35.314Z,59.95
2018-08-17T04:07:04.416Z,60.16
2018-08-17T04:09:33.481Z,59.92
2018-08-17T04:12:02.615Z,60.15
2018-08-17T04:14:31.748Z,60.11
2018-08-17T04:17:00.882Z,59.48
2018-08-17T04:19:30.033Z,59.63
2018-08-17T04:21:59.181Z,59.71
2018-08-17T04:24:28.358Z,59.44
2018-08-17T04:26:57.466Z,59.35
2018-08-17T04:29:26.536Z,58.94
2018-08-17T04:31:55.701Z,58.68
2018-08-17T04:34:24.889Z,58.77
2018-08-17T04:36:54.030Z,58.17
2018-08-17T04:39:23.203Z,58.21
2018-08-17T04:41:52.323Z,57.54
2018-08-17T04:44:21.468Z,57.46
2018-08-17T04:46:50.655Z,57.18
2018-08-17T04:49:19.847Z,57.32
2018-08-17T04:51:49.016Z,56.90
2018-08-17T04:54:18.233Z,56.86
2018-08-17T04:56:47.437Z,57.26
2018-08-17T04:59:16.566Z,56.94
2018-08-17T05:01:45.686Z,57.42
2018-08-17T05:04:14.836Z,57.12
2018-08-17T05:06:44.021Z,57.40
2018-08-17T05:09:13.162Z,56.93
2018-08-17T05:11:42.374Z,56.91
2018-08-17T05:14:11.574Z,57.06
2018-08-17T05:16:40.663Z,57.21
2018-08-17T05:19:09.779Z,57.27
2018-08-17T05:21:38.953Z,57.52
2018-08-17T05:24:08.079Z,57.63
2018-08-17T05:26:37.204Z,57.57
2018-08-17T05:29:06.542Z,57.05
2018-08-17T05:31:35.706Z,57.14
2018-08-17T05:34:04.899Z,57.22
2018-08-17T05:36:34.065Z,56.60
2018-08-17T05:39:03.235Z,56.62
2018-08-17T05:41:32.438Z,56.32
2018-08-17T05:44:01.605Z,55.96
2018-08-17T05:46:30.827Z,55.95
2018-08-17T05:49:00.002Z,55.67
2018-08-17T05:51:29.097Z,55.01
2018-08-17T05:53:58.298Z,55.27
2018-08-17T05:56:27.451Z,54.94
2018-08-17T05:58:56.647Z,54.65
2018-08-17T06:01:25.796Z,53.83
2018-08-17T06:03:54.985Z,53.81
2018-08-17T06:06:24.234Z,53.10
2018-08-17T06:08:53.434Z,52.10
2018-08-17T06:11:22.780Z,51.43
2018-08-17T06:13:51.750Z,51.21
2018-08-17T06:16:20.941Z,51.32
2018-08-17T06:18:50.183Z,50.36
2018-08-17T06:21:19.357Z,49.94
2018-08-17T06:23:48.494Z,49.95
2018-08-17T06:26:17.643Z,48.59
2018-08-17T06:28:46.761Z,48.52
2018-08-17T06:31:15.892Z,48.69
2018-08-17T06:33:45.088Z,45.59
2018-08-17T06:36:14.231Z,42.38
2018-08-17T06:38:43.455Z,45.00
2018-08-17T06:41:12.620Z,47.45
2018-08-17T06:43:41.812Z,49.10
2018-08-17T06:46:11.015Z,49.14
2018-08-17T06:48:40.209Z,49.31
2018-08-17T06:51:09.358Z,49.23
2018-08-17T06:53:38.470Z,49.14
2018-08-17T06:56:07.642Z,49.09
2018-08-17T06:58:36.786Z,49.87
2018-08-17T07:01:05.947Z,49.49
2018-08-17T07:03:35.121Z,48.90
2018-08-17T07:06:04.266Z,49.82
2018-08-17T07:08:33.382Z,49.10
2018-08-17T07:11:02.625Z,48.70
2018-08-17T07:13:31.788Z,48.91
2018-08-17T07:16:00.931Z,48.88
2018-08-17T07:18:30.339Z,48.80
2018-08-17T07:20:59.435Z,48.78
2018-08-17T07:23:28.631Z,47.69
2018-08-17T07:25:57.784Z,48.26
2018-08-17T07:28:26.909Z,48.51
2018-08-17T07:30:56.106Z,47.27
2018-08-17T07:33:25.196Z,47.33
2018-08-17T07:35:54.474Z,47.98
2018-08-17T07:38:23.536Z,47.35
2018-08-17T07:40:52.709Z,46.93
2018-08-17T07:43:21.902Z,47.20
2018-08-17T07:45:51.102Z,46.55
2018-08-17T07:48:20.414Z,45.90
2018-08-17T07:50:49.467Z,46.44
2018-08-17T07:53:18.595Z,46.16
2018-08-17T07:55:47.736Z,45.41
2018-08-17T07:58:16.983Z,44.95
2018-08-17T08:00:46.075Z,45.21
2018-08-17T08:03:15.247Z,45.94
2018-08-17T08:05:44.472Z,44.06
2018-08-17T08:08:13.607Z,45.01
2018-08-17T08:10:42.734Z,44.49
2018-08-17T08:13:11.977Z,45.68
2018-08-17T08:15:41.132Z,44.62
2018-08-17T08:18:10.513Z,44.78
2018-08-17T08:20:43.093Z,44.48
2018-08-17T08:23:25.184Z,45.08
2018-08-17T08:25:54.791Z,45.07
2018-08-17T08:28:23.965Z,44.68
2018-08-17T08:30:53.093Z,44.62
2018-08-17T08:33:22.509Z,44.11
2018-08-17T08:35:51.934Z,42.76
2018-08-17T08:38:21.069Z,42.55
2018-08-17T08:40:50.250Z,43.70
2018-08-17T08:43:19.474Z,43.80
2018-08-17T08:45:48.639Z,44.00
2018-08-17T08:48:17.812Z,43.40
2018-08-17T08:50:46.927Z,42.14
2018-08-17T08:53:16.085Z,42.08
2018-08-17T08:55:45.278Z,42.18
2018-08-17T08:58:14.448Z,41.91
2018-08-17T09:00:43.744Z,41.19
2018-08-17T09:03:12.946Z,41.46
2018-08-17T09:05:42.081Z,40.76
2018-08-17T09:08:11.234Z,40.58
2018-08-17T09:10:40.369Z,40.58
2018-08-17T09:13:09.541Z,40.13
2018-08-17T09:15:38.694Z,39.26
2018-08-17T09:18:07.854Z,35.63
2018-08-17T09:20:37.087Z,33.71
2018-08-17T09:23:06.240Z,32.69
2018-08-17T09:25:35.384Z,32.02
2018-08-17T09:28:04.523Z,31.46
2018-08-17T09:30:33.661Z,31.22
2018-08-17T09:33:02.894Z,29.97
2018-08-17T09:35:32.060Z,29.43
2018-08-17T09:38:01.208Z,29.39
2018-08-17T09:40:30.386Z,29.86
2018-08-17T09:42:59.556Z,29.93
2018-08-17T09:45:28.777Z,33.00
2018-08-17T09:47:57.906Z,31.64
2018-08-17T09:50:26.998Z,30.94
2018-08-17T09:52:56.146Z,31.09
2018-08-17T09:55:25.292Z,31.32
2018-08-17T09:57:54.420Z,30.63
2018-08-17T10:00:27.685Z,30.45
2018-08-17T10:03:02.274Z,32.26
2018-08-17T10:05:36.743Z,32.50
2018-08-17T10:08:11.276Z,31.53
2018-08-17T10:10:40.480Z,33.66
2018-08-17T10:13:09.659Z,33.38
2018-08-17T10:15:38.817Z,33.50
2018-08-17T10:18:08.008Z,34.95
2018-08-17T10:20:37.176Z,35.30
2018-08-17T10:23:13.285Z,33.38
2018-08-17T10:25:42.438Z,32.61
2018-08-17T10:28:11.624Z,33.02
2018-08-17T10:30:40.763Z,33.03
2018-08-17T10:33:10.017Z,31.31
2018-08-17T10:35:39.337Z,31.73
2018-08-17T10:38:08.865Z,33.19
2018-08-17T10:40:38.015Z,33.42
2018-08-17T10:43:07.635Z,34.38
2018-08-17T10:45:36.756Z,34.19
2018-08-17T10:48:05.899Z,32.14
2018-08-17T10:50:35.650Z,33.89
2018-08-17T10:53:05.427Z,35.30
2018-08-17T10:55:43.227Z,34.02
2018-08-17T10:58:13.983Z,32.41
2018-08-17T11:00:43.214Z,31.81
2018-08-17T11:03:12.535Z,31.48
2018-08-17T11:05:42.079Z,33.47
2018-08-17T11:08:11.167Z,34.05
2018-08-17T11:10:40.311Z,35.07
2018-08-17T11:13:09.481Z,35.00
2018-08-17T11:15:38.604Z,35.51
2018-08-17T11:18:07.816Z,35.48
2018-08-17T11:20:36.936Z,34.67
2018-08-17T11:23:06.060Z,35.08
2018-08-17T11:25:35.226Z,37.11
2018-08-17T11:28:04.484Z,38.19
2018-08-17T11:30:33.623Z,37.79
2018-08-17T11:33:02.764Z,37.74
2018-08-17T11:35:31.996Z,37.95
2018-08-17T11:38:01.061Z,36.45
2018-08-17T11:40:30.208Z,36.37
2018-08-17T11:42:59.335Z,35.40
2018-08-17T11:45:28.705Z,35.13
2018-08-17T11:47:58.724Z,35.83
2018-08-17T11:50:28.014Z,37.19
2018-08-17T11:52:58.211Z,37.73
2018-08-17T11:55:29.704Z,37.56
2018-08-17T11:57:58.822Z,36.77
2018-08-17T12:00:32.552Z,36.06
2018-08-17T12:03:01.753Z,36.56
2018-08-17T12:05:30.818Z,36.42
2018-08-17T12:07:59.999Z,36.23
2018-08-17T12:10:29.122Z,35.89
2018-08-17T12:13:06.335Z,37.12
2018-08-17T12:15:57.024Z,36.95
2018-08-17T12:18:26.543Z,35.45
2018-08-17T12:20:56.082Z,36.22
2018-08-17T12:23:25.250Z,36.33
2018-08-17T12:25:55.832Z,34.86
2018-08-17T12:28:26.306Z,35.52
2018-08-17T12:30:55.448Z,35.25
2018-08-17T12:33:24.514Z,34.91
2018-08-17T12:35:53.636Z,35.11
2018-08-17T12:38:22.787Z,35.39
2018-08-17T12:40:53.246Z,35.08
2018-08-17T12:43:28.236Z,35.04
2018-08-17T12:45:57.358Z,34.21
2018-08-17T12:48:26.476Z,34.19
2018-08-17T12:50:59.687Z,34.65
2018-08-17T12:53:28.767Z,34.71
2018-08-17T12:55:57.855Z,34.56
2018-08-17T12:58:26.960Z,33.61
2018-08-17T13:00:56.085Z,33.79
2018-08-17T13:03:25.193Z,33.15
2018-08-17T13:05:54.256Z,33.10
2018-08-17T13:08:23.366Z,33.16
2018-08-17T13:10:52.562Z,33.63
2018-08-17T13:13:28.104Z,33.00
2018-08-17T13:16:02.476Z,32.43
2018-08-17T13:18:34.864Z,33.80
2018-08-17T13:21:03.967Z,32.53
2018-08-17T13:23:33.086Z,32.08
2018-08-17T13:26:02.179Z,32.14
2018-08-17T13:28:31.316Z,32.25
2018-08-17T13:31:00.413Z,32.65
2018-08-17T13:33:29.489Z,32.41
2018-08-17T13:35:58.714Z,32.38
2018-08-17T13:38:27.899Z,32.70
2018-08-17T13:40:56.966Z,33.37
2018-08-17T13:43:26.079Z,32.24
2018-08-17T13:45:55.197Z,32.34
2018-08-17T13:48:24.329Z,32.49
2018-08-17T13:50:53.511Z,33.39
2018-08-17T13:53:42.315Z,32.87
2018-08-17T13:56:11.441Z,32.44
2018-08-17T13:58:40.493Z,32.48
2018-08-17T14:01:09.577Z,31.99
2018-08-17T14:03:38.659Z,32.34
2018-08-17T14:06:07.815Z,31.86
2018-08-17T14:08:36.903Z,32.63
2018-08-17T14:11:06.058Z,32.79
2018-08-17T14:13:35.146Z,32.54
2018-08-17T14:16:04.310Z,31.79
2018-08-17T14:18:33.403Z,32.97
2018-08-17T14:21:02.533Z,32.94
2018-08-17T14:23:31.634Z,32.50
2018-08-17T14:26:00.752Z,31.83
2018-08-17T14:28:29.885Z,32.21
2018-08-17T14:30:59.038Z,32.04
2018-08-17T14:33:28.150Z,32.35
2018-08-17T14:35:57.256Z,32.84
2018-08-17T14:38:34.043Z,32.12
2018-08-17T14:41:04.100Z,32.59
2018-08-17T14:43:33.649Z,32.74
2018-08-17T14:46:02.804Z,32.42
2018-08-17T14:48:31.915Z,32.35
2018-08-17T14:51:00.970Z,34.06
2018-08-17T14:53:30.088Z,32.83
2018-08-17T14:55:59.190Z,33.09
2018-08-17T14:58:28.267Z,33.24
2018-08-17T15:00:57.492Z,33.79
2018-08-17T15:03:26.582Z,32.63
2018-08-17T15:05:55.667Z,32.54
2018-08-17T15:08:24.737Z,33.07
2018-08-17T15:10:53.841Z,32.81
2018-08-17T15:13:22.994Z,32.45
2018-08-17T15:15:52.097Z,32.52
2018-08-17T15:18:21.247Z,32.44
2018-08-17T15:20:50.379Z,33.53
2018-08-17T15:23:19.510Z,33.38
2018-08-17T15:25:48.571Z,33.01
2018-08-17T15:28:17.655Z,33.02
2018-08-17T15:30:46.751Z,32.95
2018-08-17T15:33:15.852Z,33.26
2018-08-17T15:35:44.925Z,32.78
2018-08-17T15:38:14.005Z,33.30
2018-08-17T15:40:43.104Z,33.74
2018-08-17T15:43:17.337Z,32.69
2018-08-17T15:45:47.979Z,32.94
2018-08-17T15:48:17.429Z,33.68
2018-08-17T15:50:46.543Z,34.27
2018-08-17T15:53:15.680Z,34.80
2018-08-17T15:55:44.776Z,35.46
2018-08-17T15:58:13.836Z,34.79
2018-08-17T16:00:42.952Z,34.69
2018-08-17T16:03:12.068Z,34.18
2018-08-17T16:05:41.205Z,33.91
2018-08-17T16:08:10.402Z,33.61
2018-08-17T16:10:39.514Z,32.98
2018-08-17T16:13:08.607Z,33.21
2018-08-17T16:15:37.678Z,32.98
2018-08-17T16:18:06.837Z,33.24
2018-08-17T16:20:35.982Z,33.35
2018-08-17T16:23:05.120Z,32.88
2018-08-17T16:25:34.209Z,32.66
2018-08-17T16:28:03.304Z,33.50
2018-08-17T16:30:32.453Z,33.38
2018-08-17T16:33:01.563Z,33.48
2018-08-17T16:35:30.736Z,33.07
2018-08-17T16:37:59.870Z,33.77
2018-08-17T16:40:32.164Z,34.14
2018-08-17T16:43:01.261Z,33.72
2018-08-17T16:45:30.389Z,36.31
2018-08-17T16:47:59.450Z,38.36
2018-08-17T16:50:28.561Z,39.46
2018-08-17T16:52:57.773Z,40.56
2018-08-17T16:55:26.855Z,40.16
2018-08-17T16:57:56.003Z,40.72
2018-08-17T17:00:25.165Z,41.75
2018-08-17T17:02:54.261Z,41.75
2018-08-17T17:05:23.422Z,41.85
2018-08-17T17:07:52.516Z,41.62
2018-08-17T17:10:21.773Z,41.61
2018-08-17T17:12:50.900Z,42.18
2018-08-17T17:15:21.134Z,42.27
2018-08-17T17:17:58.140Z,41.97
2018-08-17T17:20:32.388Z,41.88
2018-08-17T17:23:01.560Z,41.92
2018-08-17T17:25:30.783Z,41.81
2018-08-17T17:27:59.828Z,41.85
2018-08-17T17:30:41.186Z,42.23
2018-08-17T17:33:10.983Z,42.14
2018-08-17T17:35:42.194Z,42.26
2018-08-17T17:38:11.787Z,42.44
2018-08-17T17:40:41.481Z,42.90
2018-08-17T17:43:10.866Z,43.46
2018-08-17T17:45:40.351Z,43.47
2018-08-17T17:48:10.394Z,43.75
2018-08-17T17:50:39.500Z,43.70
2018-08-17T17:53:08.662Z,43.22
2018-08-17T17:55:44.928Z,43.70
2018-08-17T17:58:14.612Z,43.66
2018-08-17T18:00:55.366Z,43.86
2018-08-17T18:03:24.979Z,43.44
2018-08-17T18:05:54.143Z,43.59
2018-08-17T18:08:23.275Z,43.90
2018-08-17T18:10:52.396Z,43.43
2018-08-17T18:13:21.562Z,44.01
2018-08-17T18:15:50.657Z,43.77
2018-08-17T18:18:19.710Z,43.70
2018-08-17T18:20:48.842Z,43.43
2018-08-17T18:23:17.946Z,43.92
2018-08-17T18:25:47.042Z,43.94
2018-08-17T18:28:16.182Z,44.14
2018-08-17T18:30:45.390Z,44.05
2018-08-17T18:33:14.427Z,43.89
2018-08-17T18:35:43.690Z,44.22
2018-08-17T18:38:12.819Z,44.49
2018-08-17T18:40:41.888Z,44.70
2018-08-17T18:43:11.095Z,44.62
2018-08-17T18:45:40.194Z,44.38
2018-08-17T18:48:09.588Z,44.48
2018-08-17T18:50:38.777Z,44.82
2018-08-17T18:53:07.920Z,44.60
2018-08-17T18:55:37.078Z,44.58
2018-08-17T18:58:06.180Z,45.20
2018-08-17T19:00:35.310Z,45.03
2018-08-17T19:03:04.524Z,45.16
2018-08-17T19:05:33.675Z,45.55
2018-08-17T19:08:02.802Z,45.42
2018-08-17T19:10:31.938Z,45.59
2018-08-17T19:13:01.020Z,45.96
2018-08-17T19:15:34.298Z,46.47
2018-08-17T19:18:03.351Z,46.33
2018-08-17T19:20:32.487Z,46.91
2018-08-17T19:23:01.558Z,46.94
2018-08-17T19:25:30.670Z,47.52
2018-08-17T19:27:59.771Z,47.34
2018-08-17T19:30:33.861Z,47.73
2018-08-17T19:33:11.518Z,48.05
2018-08-17T19:35:47.347Z,48.08
2018-08-17T19:38:16.438Z,48.00
2018-08-17T19:40:45.530Z,48.06
2018-08-17T19:43:14.638Z,48.76
2018-08-17T19:45:43.765Z,48.73
2018-08-17T19:48:12.863Z,48.89
2018-08-17T19:50:41.974Z,49.10
2018-08-17T19:53:11.135Z,48.84
2018-08-17T19:55:40.191Z,49.10
2018-08-17T19:58:09.338Z,49.47
2018-08-17T20:00:38.455Z,49.24
2018-08-17T20:03:07.665Z,49.48
2018-08-17T20:05:36.799Z,49.49
2018-08-17T20:08:05.959Z,49.85
2018-08-17T20:10:35.016Z,50.49
2018-08-17T20:13:04.146Z,50.54
2018-08-17T20:15:33.365Z,51.03
2018-08-17T20:18:02.425Z,50.98
2018-08-17T20:20:31.542Z,51.30
2018-08-17T20:23:02.510Z,51.11
2018-08-17T20:25:31.612Z,51.35
2018-08-17T20:28:00.665Z,51.80
2018-08-17T20:30:29.741Z,51.54
2018-08-17T20:32:58.859Z,52.07
2018-08-17T20:35:27.935Z,52.29
2018-08-17T20:37:57.065Z,52.31
2018-08-17T20:40:26.142Z,52.45
2018-08-17T20:42:55.221Z,52.19
2018-08-17T20:45:26.849Z,52.33
2018-08-17T20:47:56.036Z,52.18
2018-08-17T20:50:25.127Z,52.33
2018-08-17T20:53:00.271Z,51.91
2018-08-17T20:55:29.435Z,51.92
2018-08-17T20:57:59.367Z,51.84
2018-08-17T21:00:29.817Z,52.05
2018-08-17T21:02:59.276Z,51.82
2018-08-17T21:05:28.663Z,51.93
2018-08-17T21:07:58.091Z,51.80
2018-08-17T21:10:27.510Z,51.59
2018-08-17T21:12:56.914Z,51.94
2018-08-17T21:15:26.329Z,51.78
2018-08-17T21:17:55.737Z,52.00
2018-08-17T21:20:25.172Z,51.91
2018-08-17T21:22:54.594Z,52.20
2018-08-17T21:25:23.880Z,52.51
2018-08-17T21:27:53.091Z,52.45
2018-08-17T21:30:22.253Z,52.49
2018-08-17T21:32:51.446Z,52.74
2018-08-17T21:35:20.642Z,52.81
2018-08-17T21:37:49.818Z,52.48
2018-08-17T21:40:28.064Z,52.84
2018-08-17T21:42:58.817Z,53.03
2018-08-17T21:45:27.991Z,52.88
2018-08-17T21:47:57.184Z,52.83
2018-08-17T21:50:26.337Z,52.91
2018-08-17T21:52:55.479Z,53.40
2018-08-17T21:55:24.661Z,53.22
2018-08-17T21:57:53.814Z,53.15
2018-08-17T22:00:30.052Z,53.21
2018-08-17T22:02:59.426Z,53.33
2018-08-17T22:05:31.198Z,53.13
2018-08-17T22:08:00.829Z,53.59
2018-08-17T22:10:30.749Z,53.60
2018-08-17T22:12:59.883Z,53.93
2018-08-17T22:15:30.434Z,53.89
2018-08-17T22:17:59.974Z,53.96
2018-08-17T22:20:29.124Z,54.64
2018-08-17T22:22:59.571Z,54.37
2018-08-17T22:25:28.884Z,54.44
2018-08-17T22:27:58.065Z,54.64
2018-08-17T22:30:27.678Z,54.81
2018-08-17T22:32:56.859Z,55.20
2018-08-17T22:35:26.134Z,55.03
2018-08-17T22:37:55.236Z,55.46
2018-08-17T22:40:24.386Z,55.14
2018-08-17T22:42:53.534Z,55.53
2018-08-17T22:45:22.689Z,55.72
2018-08-17T22:47:51.841Z,55.62
2018-08-17T22:50:21.003Z,55.74
2018-08-17T22:52:50.214Z,55.82
2018-08-17T22:55:19.323Z,55.72
2018-08-17T22:57:48.406Z,55.64
2018-08-17T23:00:25.915Z,55.95
2018-08-17T23:02:57.138Z,55.68
2018-08-17T23:05:29.089Z,55.65
2018-08-17T23:07:58.185Z,55.18
2018-08-17T23:10:28.190Z,55.35
2018-08-17T23:12:57.746Z,55.49
2018-08-17T23:15:26.892Z,55.28
2018-08-17T23:17:58.085Z,55.78
2018-08-17T23:20:32.697Z,55.97
2018-08-17T23:23:02.597Z,55.58
2018-08-17T23:25:31.953Z,55.76
2018-08-17T23:28:01.147Z,55.62
2018-08-17T23:30:30.324Z,55.43
2018-08-17T23:32:59.411Z,55.25
2018-08-17T23:35:28.540Z,55.31
2018-08-17T23:37:57.660Z,55.47
2018-08-17T23:40:26.753Z,55.48
2018-08-17T23:42:55.945Z,55.98
2018-08-17T23:45:25.101Z,55.89
2018-08-17T23:47:54.256Z,56.14
2018-08-17T23:50:23.400Z,56.31
2018-08-17T23:52:52.501Z,56.09
2018-08-17T23:55:21.642Z,56.47
2018-08-17T23:57:50.807Z,56.58
